Time;durP1;ratioP1;P1;durP2;ratioP2;P2;SDS_P1;SDS_P2;PMS_P1;PMS_P2;Temp;Humidity;BMP_temperature;BMP_pressure;BME280_temperature;BME280_humidity;BME280_pressure;Samples;Min_cycle;Max_cycle;Signal;HPM_P1;HPM_P2
2023/05/22 00:00:15;;;;;;;5.80;4.55;;;20.70;75.70;;;;;;5013760;28;20080;-32
2023/05/22 00:02:42;;;;;;;4.22;3.83;;;21.30;76.10;;;;;;5013283;28;20046;-32
2023/05/22 00:05:10;;;;;;;5.00;4.18;;;20.80;58.70;;;;;;5013607;28;20050;-31
2023/05/22 00:07:38;;;;;;;4.70;4.20;;;20.90;75.80;;;;;;5013652;28;20435;-32
2023/05/22 00:10:06;;;;;;;4.45;4.03;;;;;;;;;;5013383;28;20064;-32
2023/05/22 00:12:32;;;;;;;4.47;3.70;;;21.40;76.60;;;;;;5013161;28;20581;-32
2023/05/22 00:15:00;;;;;;;3.97;3.58;;;;;;;;;;5013274;28;20057;-32
2023/05/22 00:17:29;;;;;;;4.20;3.80;;;20.70;75.60;;;;;;5012020;28;20518;-32
2023/05/22 00:20:06;;;;;;;4.75;4.28;;;;;;;;;;5013428;28;20684;-32
2023/05/22 00:22:34;;;;;;;5.03;4.38;;;20.30;74.10;;;;;;5012909;28;20046;-32
2023/05/22 00:25:02;;;;;;;5.25;3.80;;;20.80;61.80;;;;;;5013469;28;20447;-33
2023/05/22 00:27:29;;;;;;;4.63;4.22;;;20.70;69.70;;;;;;5013288;28;20049;-32
2023/05/22 00:29:56;;;;;;;5.25;4.03;;;;;;;;;;5012732;28;20046;-31
2023/05/22 00:32:23;;;;;;;5.60;4.20;;;20.40;75.20;;;;;;5012241;28;20529;-32
2023/05/22 00:34:50;;;;;;;5.03;3.97;;;;;;;;;;5012519;28;20049;-32
2023/05/22 00:37:18;;;;;;;4.65;3.85;;;;;;;;;;5012766;28;20042;-32
2023/05/22 00:39:45;;;;;;;4.03;3.63;;;21.30;62.90;;;;;;5013047;28;20081;-32
2023/05/22 00:42:13;;;;;;;4.60;3.78;;;21.10;75.90;;;;;;5012653;28;20133;-33
2023/05/22 00:44:40;;;;;;;4.07;3.67;;;;;;;;;;5012353;28;20137;-32
2023/05/22 00:47:07;;;;;;;4.68;4.18;;;20.90;75.50;;;;;;5012603;28;20113;-32
2023/05/22 00:49:34;;;;;;;4.38;3.83;;;20.80;75.30;;;;;;5003381;28;20046;-32
2023/05/22 00:52:01;;;;;;;4.68;3.80;;;;;;;;;;5009976;28;20056;-31
2023/05/22 00:54:28;;;;;;;4.20;3.80;;;20.40;75.30;;;;;;5012722;28;20057;-32
2023/05/22 00:56:55;;;;;;;4.30;3.83;;;;;;;;;;5012448;28;20053;-30
2023/05/22 00:59:23;;;;;;;4.60;4.20;;;20.60;75.30;;;;;;5012526;28;20060;-32
2023/05/22 01:01:50;;;;;;;4.45;3.80;;;;;;;;;;5012118;28;20144;-32
2023/05/22 01:04:17;;;;;;;4.20;3.80;;;;;;;;;;5012284;28;20133;-31
2023/05/22 01:06:46;;;;;;;4.60;3.60;;;;;;;;;;5012376;28;20125;-32
2023/05/22 01:09:13;;;;;;;4.90;4.40;;;20.50;75.10;;;;;;5012079;28;20065;-32
2023/05/22 01:11:42;;;;;;;4.88;4.00;;;20.70;76.10;;;;;;5011948;28;20144;-32
2023/05/22 01:14:11;;;;;;;4.40;4.00;;;20.80;75.40;;;;;;5011965;28;20048;-32
2023/05/22 01:16:47;;;;;;;4.32;3.92;;;20.90;75.40;;;;;;5012393;28;20100;-32
2023/05/22 01:19:29;;;;;;;4.65;4.07;;;20.70;58.60;;;;;;5012526;28;20042;-32
2023/05/22 01:21:59;;;;;;;4.85;4.22;;;20.70;58.60;;;;;;5012088;28;20054;-31
2023/05/22 01:24:56;;;;;;;4.20;3.80;;;19.60;58.80;;;;;;5012113;28;20152;-31
2023/05/22 01:27:48;;;;;;;4.68;4.10;;;19.50;71.00;;;;;;5012406;28;20054;-32
2023/05/22 01:30:26;;;;;;;4.32;3.92;;;20.70;73.70;;;;;;5011767;28;20138;-32
2023/05/22 01:32:55;;;;;;;4.28;3.88;;;20.40;76.20;;;;;;5011852;28;20060;-32
2023/05/22 01:35:22;;;;;;;4.20;3.80;;;;;;;;;;5012385;28;20061;-31
2023/05/22 01:37:49;;;;;;;4.40;4.00;;;21.70;76.30;;;;;;5011527;28;20132;-32
2023/05/22 01:40:16;;;;;;;4.28;3.80;;;;;;;;;;5011867;28;20423;-31
2023/05/22 01:42:43;;;;;;;5.40;4.60;;;20.40;75.30;;;;;;5011579;28;20144;-32
2023/05/22 01:45:11;;;;;;;5.22;4.00;;;20.10;76.00;;;;;;5011822;28;20141;-33
2023/05/22 01:47:37;;;;;;;4.20;3.80;;;20.30;75.50;;;;;;5011845;28;20046;-32
2023/05/22 01:50:06;;;;;;;4.20;3.80;;;20.80;75.80;;;;;;5011990;28;20075;-33
2023/05/22 01:52:36;;;;;;;5.82;4.45;;;21.40;70.90;;;;;;5011606;28;20050;-33
2023/05/22 01:55:06;;;;;;;4.80;3.90;;;21.00;59.70;;;;;;5011588;28;20144;-32
2023/05/22 01:57:33;;;;;;;4.30;3.90;;;;;;;;;;5011835;28;20129;-31
2023/05/22 02:00:08;;;;;;;4.55;4.13;;;19.60;74.90;;;;;;5011483;28;20053;-33
2023/05/22 02:02:35;;;;;;;4.50;4.10;;;20.20;63.70;;;;;;4991952;28;20054;-32
2023/05/22 02:05:02;;;;;;;4.30;3.90;;;20.40;75.30;;;;;;4992114;28;20046;-33
2023/05/22 02:07:32;;;;;;;4.50;4.10;;;20.50;64.30;;;;;;4992255;28;20057;-32
2023/05/22 02:09:58;;;;;;;4.25;3.85;;;20.70;75.70;;;;;;5004272;28;20041;-33
2023/05/22 02:12:25;;;;;;;4.13;3.72;;;20.00;63.90;;;;;;5011669;28;20054;-32
2023/05/22 02:14:52;;;;;;;4.30;3.90;;;19.90;75.90;;;;;;5011314;28;20145;-33
2023/05/22 02:17:20;;;;;;;5.75;4.20;;;20.80;75.60;;;;;;5011685;28;20056;-32
2023/05/22 02:19:47;;;;;;;4.20;3.80;;;;;;;;;;5011661;28;20141;-31
2023/05/22 02:22:14;;;;;;;4.25;3.85;;;21.50;76.50;;;;;;5011187;28;20153;-33
2023/05/22 02:24:43;;;;;;;4.40;4.00;;;20.20;73.40;;;;;;5011461;28;20058;-33
2023/05/22 02:27:10;;;;;;;4.78;4.10;;;20.80;75.50;;;;;;5011459;28;20579;-33
2023/05/22 02:29:38;;;;;;;4.13;3.72;;;20.80;76.30;;;;;;5011255;28;20041;-32
2023/05/22 02:32:05;;;;;;;4.25;3.78;;;21.50;76.30;;;;;;5011133;28;20125;-33
2023/05/22 02:34:33;;;;;;;4.30;3.90;;;;;;;;;;5011472;28;20054;-33
2023/05/22 02:37:02;;;;;;;4.65;4.20;;;20.70;67.00;;;;;;5010895;28;20042;-32
2023/05/22 02:39:29;;;;;;;4.47;4.05;;;20.40;75.60;;;;;;5011401;28;20046;-33
2023/05/22 02:41:57;;;;;;;4.15;3.75;;;20.60;58.60;;;;;;5011367;28;20237;-32
2023/05/22 02:44:24;;;;;;;4.80;4.10;;;;;;;;;;5010961;28;20096;-33
2023/05/22 02:46:51;;;;;;;4.72;4.22;;;20.90;76.30;;;;;;5011666;28;20065;-32
2023/05/22 02:49:18;;;;;;;4.70;4.20;;;;;;;;;;5011435;28;20046;-32
2023/05/22 02:51:46;;;;;;;6.70;4.40;;;20.50;65.30;;;;;;5011399;28;20050;-32
2023/05/22 02:54:14;;;;;;;5.18;4.40;;;20.70;76.10;;;;;;5010557;28;20499;-33
2023/05/22 02:56:41;;;;;;;4.97;4.47;;;20.70;75.40;;;;;;5012874;28;20057;-33
2023/05/22 02:59:10;;;;;;;4.30;3.90;;;20.40;75.10;;;;;;5014692;28;20121;-33
2023/05/22 03:01:38;;;;;;;4.78;4.28;;;;;;;;;;5015058;28;20053;-31
2023/05/22 03:04:05;;;;;;;4.35;3.95;;;20.60;64.90;;;;;;5014031;28;20100;-32
2023/05/22 03:06:33;;;;;;;4.60;4.07;;;19.50;75.10;;;;;;5014856;28;20058;-33
2023/05/22 03:09:02;;;;;;;4.47;4.07;;;;;;;;;;5014817;28;20053;-33
2023/05/22 03:11:29;;;;;;;4.72;4.22;;;21.10;67.10;;;;;;5014045;28;20136;-33
2023/05/22 03:13:56;;;;;;;4.35;3.95;;;19.50;60.30;;;;;;5014476;28;20060;-32
2023/05/22 03:16:24;;;;;;;4.95;4.43;;;20.80;75.40;;;;;;5014373;28;20457;-33
2023/05/22 03:18:53;;;;;;;4.72;4.22;;;;;;;;;;5014420;28;20136;-31
2023/05/22 03:21:19;;;;;;;4.40;4.00;;;21.40;68.60;;;;;;5014492;28;20054;-32
2023/05/22 03:23:48;;;;;;;4.57;4.07;;;20.80;75.50;;;;;;5013846;28;20494;-33
2023/05/22 03:26:15;;;;;;;4.90;4.50;;;;;;;;;;5014349;28;20058;-33
2023/05/22 03:28:42;;;;;;;4.88;4.35;;;21.20;71.70;;;;;;5014204;28;20050;-32
2023/05/22 03:31:09;;;;;;;5.05;4.60;;;20.90;75.80;;;;;;5014427;28;20056;-33
2023/05/22 03:33:37;;;;;;;4.88;4.38;;;20.60;58.60;;;;;;5013825;28;20057;-31
2023/05/22 03:36:04;;;;;;;4.32;3.92;;;20.60;58.60;;;;;;5013633;28;20133;-31
2023/05/22 03:38:31;;;;;;;4.80;4.30;;;20.20;76.00;;;;;;5014285;28;20048;-33
2023/05/22 03:40:58;;;;;;;4.72;4.22;;;;;;;;;;5013742;28;20434;-32
2023/05/22 03:43:24;;;;;;;5.35;4.57;;;21.20;70.70;;;;;;5013981;28;20471;-32
2023/05/22 03:45:51;;;;;;;4.57;4.18;;;21.20;76.60;;;;;;5013713;28;20053;-32
2023/05/22 03:48:18;;;;;;;4.75;4.35;;;;;;;;;;4994574;28;20080;-32
2023/05/22 03:50:46;;;;;;;4.60;4.20;;;20.60;58.60;;;;;;4994523;28;20119;-32
2023/05/22 03:53:13;;;;;;;4.65;4.25;;;20.90;75.90;;;;;;4994318;28;20057;-32
2023/05/22 03:55:40;;;;;;;4.50;4.10;;;19.80;75.00;;;;;;4994254;28;20054;-33
2023/05/22 03:58:07;;;;;;;4.50;4.10;;;20.30;75.20;;;;;;5010802;28;20077;-33
2023/05/22 04:00:33;;;;;;;4.65;4.15;;;20.70;75.90;;;;;;5013447;28;20057;-32
2023/05/22 04:03:01;;;;;;;4.90;4.43;;;;;;;;;;5013530;28;20133;-31
2023/05/22 04:05:28;;;;;;;5.05;4.55;;;20.00;75.00;;;;;;5013829;28;20046;-33
2023/05/22 04:07:56;;;;;;;4.60;4.20;;;20.80;71.50;;;;;;5012367;28;20565;-33
2023/05/22 04:10:23;;;;;;;5.00;4.35;;;20.60;75.40;;;;;;5013803;28;20054;-33
2023/05/22 04:12:50;;;;;;;4.63;4.10;;;19.40;68.50;;;;;;5012983;28;20145;-33
2023/05/22 04:15:17;;;;;;;4.93;4.38;;;;;;;;;;5013669;28;20128;-32
2023/05/22 04:17:46;;;;;;;5.18;4.68;;;;;;;;;;5013448;28;20128;-33
2023/05/22 04:20:13;;;;;;;4.95;4.45;;;20.80;76.40;;;;;;5013369;28;20149;-33
2023/05/22 04:22:40;;;;;;;4.75;4.35;;;19.40;74.90;;;;;;5012981;28;20050;-33
2023/05/22 04:25:09;;;;;;;5.18;4.68;;;21.00;75.80;;;;;;5013164;28;20454;-32
2023/05/22 04:27:36;;;;;;;4.97;4.47;;;20.60;69.40;;;;;;5013204;28;20053;-32
2023/05/22 04:30:04;;;;;;;5.13;3.78;;;;;;;;;;5013238;28;20499;-31
2023/05/22 04:32:30;;;;;;;4.57;4.18;;;20.50;75.50;;;;;;5013194;28;20069;-32
2023/05/22 04:34:59;;;;;;;5.20;4.57;;;;;;;;;;5013172;28;20053;-32
2023/05/22 04:37:27;;;;;;;5.18;4.68;;;;;;;;;;5012417;28;20128;-32
2023/05/22 04:39:57;;;;;;;5.00;4.50;;;20.90;66.30;;;;;;5012929;28;20053;-32
2023/05/22 04:42:27;;;;;;;5.53;4.93;;;20.50;58.60;;;;;;5013051;28;20057;-31
2023/05/22 04:44:56;;;;;;;4.70;4.30;;;20.10;69.00;;;;;;5013477;28;20050;-33
2023/05/22 04:47:23;;;;;;;4.80;4.38;;;20.30;66.80;;;;;;5013033;28;20104;-32
2023/05/22 04:49:51;;;;;;;4.70;4.30;;;;;;;;;;4995078;28;20153;-33
2023/05/22 04:52:17;;;;;;;4.57;4.18;;;20.90;75.60;;;;;;5012721;28;20209;-33
2023/05/22 04:54:45;;;;;;;5.82;4.70;;;21.10;71.20;;;;;;5012655;28;20050;-32
2023/05/22 04:57:12;;;;;;;4.82;4.38;;;;;;;;;;5012925;28;20064;-31
2023/05/22 04:59:40;;;;;;;4.82;4.25;;;20.90;76.30;;;;;;5012829;28;20121;-32
2023/05/22 05:02:07;;;;;;;5.15;4.65;;;20.80;75.40;;;;;;5012541;28;20061;-33
2023/05/22 05:04:34;;;;;;;5.45;4.95;;;19.70;64.50;;;;;;5012266;28;20056;-33
2023/05/22 05:07:02;;;;;;;4.95;4.40;;;21.60;76.30;;;;;;5012617;28;20050;-33
2023/05/22 05:09:29;;;;;;;4.72;4.20;;;20.30;65.30;;;;;;5012117;28;20088;-32
2023/05/22 05:11:55;;;;;;;4.72;4.28;;;20.70;71.20;;;;;;5012244;28;20495;-32
2023/05/22 05:14:22;;;;;;;5.00;4.50;;;20.30;75.70;;;;;;5012105;28;20554;-33
2023/05/22 05:16:51;;;;;;;5.72;4.80;;;21.30;75.50;;;;;;5012311;28;20137;-32
2023/05/22 05:19:20;;;;;;;6.07;5.00;;;20.80;76.00;;;;;;5012284;28;20057;-32
2023/05/22 05:21:48;;;;;;;6.18;4.65;;;;;;;;;;5011808;28;20070;-31
2023/05/22 05:24:15;;;;;;;5.15;4.63;;;21.00;76.10;;;;;;5011819;28;20056;-33
2023/05/22 05:26:42;;;;;;;5.15;4.65;;;20.30;75.30;;;;;;5012167;28;20088;-32
2023/05/22 05:29:09;;;;;;;5.18;4.50;;;;;;;;;;5012401;28;20133;-32
2023/05/22 05:31:36;;;;;;;6.07;4.53;;;;;;;;;;5012064;28;20052;-32
2023/05/22 05:34:04;;;;;;;5.07;4.57;;;20.40;58.50;;;;;;5011582;28;20053;-32
2023/05/22 05:36:31;;;;;;;5.90;4.72;;;;;;;;;;5011479;28;20125;-32
2023/05/22 05:38:59;;;;;;;4.75;4.22;;;;;;;;;;5012076;28;20054;-33
2023/05/22 05:41:26;;;;;;;5.05;4.55;;;20.80;68.60;;;;;;5012096;28;20053;-32
2023/05/22 05:43:56;;;;;;;5.13;4.63;;;20.10;76.00;;;;;;5007131;28;20450;-33
2023/05/22 05:46:22;;;;;;;5.35;4.85;;;21.30;75.80;;;;;;5008646;28;20547;-32
2023/05/22 05:48:49;;;;;;;4.97;4.47;;;20.60;75.50;;;;;;5011542;28;20060;-32
2023/05/22 05:51:17;;;;;;;4.97;4.50;;;20.90;64.20;;;;;;5011720;28;20129;-32
2023/05/22 05:53:44;;;;;;;5.10;4.60;;;19.50;68.30;;;;;;5011575;28;20054;-32
2023/05/22 05:56:11;;;;;;;4.90;4.40;;;20.30;76.20;;;;;;5011812;28;20125;-32
2023/05/22 05:58:37;;;;;;;4.82;4.40;;;20.80;75.70;;;;;;5012120;28;20158;-33
2023/05/22 06:01:04;;;;;;;4.70;4.30;;;20.20;63.00;;;;;;5011719;28;20509;-33
2023/05/22 06:03:31;;;;;;;4.90;4.40;;;20.50;76.40;;;;;;5011896;28;20141;-33
2023/05/22 06:05:58;;;;;;;4.88;4.40;;;21.10;75.80;;;;;;5011478;28;20085;-32
2023/05/22 06:08:27;;;;;;;4.93;4.53;;;20.80;66.50;;;;;;5011758;28;20138;-32
2023/05/22 06:10:53;;;;;;;5.60;5.10;;;21.20;72.00;;;;;;5011918;28;20087;-32
2023/05/22 06:13:21;;;;;;;5.30;4.80;;;;;;;;;;5011812;28;20129;-31
2023/05/22 06:15:47;;;;;;;5.20;4.63;;;21.50;76.20;;;;;;5011611;28;20112;-33
2023/05/22 06:18:14;;;;;;;4.97;4.53;;;20.00;75.40;;;;;;5001070;28;20513;-33
2023/05/22 06:20:41;;;;;;;5.78;4.78;;;20.90;68.00;;;;;;5001987;28;20439;-32
2023/05/22 06:23:08;;;;;;;6.90;5.15;;;20.60;71.80;;;;;;5000185;28;20439;-32
2023/05/22 06:25:38;;;;;;;5.60;5.03;;;20.40;58.70;;;;;;5002390;28;20125;-33
2023/05/22 06:28:05;;;;;;;4.82;4.40;;;20.50;58.80;;;;;;5003620;28;20100;-31
2023/05/22 06:30:32;;;;;;;5.53;4.88;;;21.10;76.00;;;;;;5000802;28;20038;-32
2023/05/22 06:32:59;;;;;;;5.38;4.88;;;;;;;;;;5005545;28;20418;-32
2023/05/22 06:35:26;;;;;;;5.10;4.60;;;20.50;76.10;;;;;;5011718;28;20133;-32
2023/05/22 06:37:53;;;;;;;5.85;5.25;;;;;;;;;;5014887;28;20046;-31
2023/05/22 06:40:20;;;;;;;6.47;5.00;;;19.90;75.80;;;;;;5015267;28;20558;-32
2023/05/22 06:42:48;;;;;;;5.25;4.75;;;20.30;76.00;;;;;;5014953;28;20053;-32
2023/05/22 06:45:18;;;;;;;5.03;4.53;;;;;;;;;;5015145;28;20137;-32
2023/05/22 06:47:45;;;;;;;5.25;4.75;;;20.60;76.70;;;;;;5015220;28;20073;-33
2023/05/22 06:50:12;;;;;;;6.00;5.22;;;;;;;;;;5015071;28;20132;-33
2023/05/22 06:52:39;;;;;;;5.57;5.07;;;;;;;;;;5015057;28;20132;-32
2023/05/22 06:55:07;;;;;;;6.35;4.95;;;20.50;59.00;;;;;;5014672;28;20053;-32
2023/05/22 06:57:34;;;;;;;5.63;5.13;;;;;;;;;;5011693;28;20140;-32
2023/05/22 07:00:06;;;;;;;5.38;4.88;;;20.70;75.90;;;;;;5005262;28;20045;-30
2023/05/22 07:02:32;;;;;;;5.40;4.90;;;20.60;76.10;;;;;;5004412;28;20392;-31
2023/05/22 07:04:59;;;;;;;5.63;5.03;;;20.00;75.50;;;;;;5001792;28;20046;-30
2023/05/22 07:07:26;;;;;;;5.70;5.10;;;19.60;58.80;;;;;;4999229;28;20477;-31
2023/05/22 07:09:53;;;;;;;5.35;4.80;;;;;;;;;;4994983;28;20389;-30
2023/05/22 07:12:24;;;;;;;4.97;4.53;;;;;;;;;;4995203;28;20137;-30
2023/05/22 07:14:51;;;;;;;4.90;4.40;;;20.40;75.50;;;;;;5003167;28;20050;-30
2023/05/22 07:17:20;;;;;;;5.28;4.78;;;20.40;76.50;;;;;;5014628;28;20506;-30
2023/05/22 07:19:47;;;;;;;5.10;4.60;;;20.70;76.50;;;;;;5014016;28;20073;-31
2023/05/22 07:22:14;;;;;;;6.00;4.95;;;20.80;75.80;;;;;;5014460;28;20053;-30
2023/05/22 07:24:41;;;;;;;5.28;4.65;;;20.50;66.30;;;;;;5014299;28;20104;-30
2023/05/22 07:27:08;;;;;;;5.25;4.75;;;20.30;75.70;;;;;;5010705;28;20137;-31
2023/05/22 07:29:35;;;;;;;5.15;4.63;;;21.60;76.10;;;;;;5005412;28;20046;-30
2023/05/22 07:32:02;;;;;;;5.38;4.43;;;;;;;;;;5014218;28;20133;-33
2023/05/22 07:34:33;;;;;;;5.00;4.40;;;20.30;75.40;;;;;;5006069;28;20053;-30
2023/05/22 07:36:59;;;;;;;5.57;4.50;;;19.90;71.70;;;;;;5010742;28;20439;-30
2023/05/22 07:39:26;;;;;;;4.82;4.43;;;;;;;;;;5014327;28;20128;-30
2023/05/22 07:41:53;;;;;;;5.82;4.40;;;21.00;64.30;;;;;;5013931;28;20045;-31
2023/05/22 07:44:20;;;;;;;6.57;4.55;;;20.70;75.70;;;;;;5013888;28;20418;-30
2023/05/22 07:46:47;;;;;;;6.13;4.72;;;;;;;;;;5013003;28;20061;-31
2023/05/22 07:49:18;;;;;;;5.68;4.80;;;20.20;75.80;;;;;;5004364;28;20137;-31
2023/05/22 07:51:46;;;;;;;5.15;4.38;;;20.40;75.60;;;;;;5008871;28;20064;-31
2023/05/22 07:54:13;;;;;;;4.70;4.30;;;21.00;76.50;;;;;;5013482;28;20554;-30
2023/05/22 07:56:41;;;;;;;5.57;4.97;;;21.50;60.90;;;;;;5014156;28;20161;-31
2023/05/22 07:59:10;;;;;;;5.90;5.25;;;;;;;;;;5013773;28;20049;-32
2023/05/22 08:01:37;;;;;;;5.97;4.68;;;;;;;;;;5012410;28;20499;-31
2023/05/22 08:04:04;;;;;;;5.03;4.50;;;;;;;;;;5013124;28;20790;-31
2023/05/22 08:06:31;;;;;;;9.27;5.22;;;20.70;76.30;;;;;;5013739;28;20050;-30
2023/05/22 08:08:59;;;;;;;6.43;4.80;;;20.70;59.20;;;;;;5013874;28;20053;-31
2023/05/22 08:11:26;;;;;;;6.95;4.63;;;21.10;65.70;;;;;;5012684;28;20042;-30
2023/05/22 08:13:53;;;;;;;6.03;5.10;;;20.70;76.10;;;;;;5003824;28;20484;-30
2023/05/22 08:16:20;;;;;;;5.55;4.95;;;20.10;75.50;;;;;;4994104;28;20051;-30
2023/05/22 08:18:47;;;;;;;6.10;4.60;;;;;;;;;;5010264;28;20050;-31
2023/05/22 08:21:13;;;;;;;6.25;4.78;;;20.40;76.40;;;;;;5013527;28;20068;-30
2023/05/22 08:23:40;;;;;;;6.85;4.70;;;20.60;76.10;;;;;;5013068;28;20049;-30
2023/05/22 08:26:08;;;;;;;5.38;4.60;;;20.80;68.50;;;;;;5013339;28;20463;-31
2023/05/22 08:28:35;;;;;;;6.10;5.25;;;20.70;70.70;;;;;;5013505;28;20058;-30
2023/05/22 08:31:02;;;;;;;7.43;4.97;;;21.00;76.10;;;;;;5005351;28;20129;-30
2023/05/22 08:33:29;;;;;;;5.75;5.03;;;;;;;;;;5012930;28;20522;-31
2023/05/22 08:35:56;;;;;;;5.32;4.50;;;20.60;64.30;;;;;;5011532;28;20069;-31
2023/05/22 08:38:23;;;;;;;5.25;4.53;;;;;;;;;;5012567;28;20493;-32
2023/05/22 08:40:50;;;;;;;6.82;4.93;;;;;;;;;;5013178;28;20045;-30
2023/05/22 08:43:19;;;;;;;6.63;4.78;;;20.90;61.30;;;;;;5012695;28;20133;-31
2023/05/22 08:45:47;;;;;;;7.47;4.43;;;21.40;76.20;;;;;;5012569;28;20144;-30
2023/05/22 08:48:15;;;;;;;5.18;4.47;;;;;;;;;;5012732;28;20050;-31
2023/05/22 08:50:42;;;;;;;5.90;4.63;;;20.70;70.80;;;;;;5012056;28;20042;-31
2023/05/22 08:53:11;;;;;;;5.80;4.78;;;21.60;76.50;;;;;;5012745;28;20096;-30
2023/05/22 08:55:37;;;;;;;6.28;4.72;;;21.00;65.10;;;;;;5012414;28;20081;-31
2023/05/22 08:58:04;;;;;;;6.60;4.30;;;21.00;76.70;;;;;;5012689;28;20573;-31
2023/05/22 09:00:32;;;;;;;5.63;4.57;;;20.60;76.40;;;;;;5012446;28;20130;-30
2023/05/22 09:02:59;;;;;;;6.57;4.40;;;21.00;75.90;;;;;;5012439;28;20057;-30
2023/05/22 09:05:26;;;;;;;5.75;4.75;;;20.00;65.40;;;;;;5012524;28;20053;-30
2023/05/22 09:07:53;;;;;;;4.95;4.45;;;20.80;76.30;;;;;;5012397;28;20054;-32
2023/05/22 09:10:20;;;;;;;4.97;4.53;;;;;;;;;;5012597;28;20049;-32
2023/05/22 09:13:03;;;;;;;5.82;4.43;;;21.10;75.80;;;;;;5012321;28;20046;-33
2023/05/22 09:15:32;;;;;;;5.05;4.50;;;20.30;59.20;;;;;;5012454;28;20487;-33
2023/05/22 09:17:58;;;;;;;5.60;4.22;;;19.90;75.50;;;;;;5012294;28;20136;-32
2023/05/22 09:20:25;;;;;;;4.90;4.40;;;20.60;75.60;;;;;;5012331;28;20053;-33
2023/05/22 09:22:52;;;;;;;5.13;4.63;;;;;;;;;;5012163;28;20049;-32
2023/05/22 09:25:19;;;;;;;6.05;4.45;;;;;;;;;;5012350;28;20133;-33
2023/05/22 09:27:46;;;;;;;5.82;4.85;;;;;;;;;;5012175;28;20077;-31
2023/05/22 09:30:16;;;;;;;6.93;4.18;;;20.90;76.40;;;;;;5012234;28;20056;-32
2023/05/22 09:32:45;;;;;;;4.88;4.38;;;20.90;59.10;;;;;;5012071;28;20046;-32
2023/05/22 09:35:12;;;;;;;5.60;4.30;;;21.00;75.90;;;;;;5011299;28;20058;-32
2023/05/22 09:37:39;;;;;;;5.03;4.43;;;;;;;;;;5011551;28;20129;-31
2023/05/22 09:40:07;;;;;;;6.18;4.60;;;21.10;76.70;;;;;;5011933;28;20521;-32
2023/05/22 09:42:34;;;;;;;6.32;5.13;;;20.30;76.40;;;;;;5011914;28;20088;-32
2023/05/22 09:45:04;;;;;;;5.10;4.60;;;19.80;75.30;;;;;;5011904;28;20050;-32
2023/05/22 09:47:32;;;;;;;5.05;4.45;;;;;;;;;;5011839;28;20072;-31
2023/05/22 09:50:03;;;;;;;6.10;4.82;;;20.80;59.20;;;;;;5012033;28;20046;-32
2023/05/22 09:52:30;;;;;;;5.03;4.32;;;20.90;65.90;;;;;;5011912;28;20061;-32
2023/05/22 09:54:56;;;;;;;5.38;4.28;;;20.90;76.20;;;;;;4993996;28;20144;-32
2023/05/22 09:57:24;;;;;;;8.10;5.00;;;20.90;59.40;;;;;;5011921;28;20136;-31
2023/05/22 09:59:53;;;;;;;5.55;4.68;;;20.40;76.50;;;;;;5011867;28;20136;-32
2023/05/22 10:02:21;;;;;;;4.82;4.30;;;20.80;72.10;;;;;;5011315;28;20507;-32
2023/05/22 10:04:48;;;;;;;5.38;4.40;;;20.90;59.40;;;;;;5011722;28;20593;-31
2023/05/22 10:07:18;;;;;;;5.13;4.47;;;20.10;75.60;;;;;;5014577;28;20053;-32
2023/05/22 10:09:45;;;;;;;8.57;4.53;;;21.10;63.70;;;;;;5015919;28;20049;-32
2023/05/22 10:12:15;;;;;;;5.07;4.57;;;;;;;;;;5015516;28;20045;-32
2023/05/22 10:14:41;;;;;;;5.75;4.80;;;21.80;76.40;;;;;;5015918;28;20127;-33
2023/05/22 10:17:10;;;;;;;5.20;4.70;;;20.80;68.60;;;;;;5015699;28;20125;-32
2023/05/22 10:19:37;;;;;;;6.40;4.45;;;20.60;75.60;;;;;;5014280;28;20129;-32
2023/05/22 10:22:04;;;;;;;5.40;4.60;;;;;;;;;;5015596;28;20052;-31
2023/05/22 10:24:33;;;;;;;5.45;4.47;;;20.60;76.10;;;;;;5014448;28;20407;-32
2023/05/22 10:26:59;;;;;;;7.05;4.72;;;21.60;76.30;;;;;;5015375;28;20499;-32
2023/05/22 10:29:33;;;;;;;6.20;4.65;;;20.70;75.70;;;;;;5013916;28;20084;-32
2023/05/22 10:32:02;;;;;;;4.90;4.32;;;20.90;59.20;;;;;;5013772;28;20038;-32
2023/05/22 10:34:31;;;;;;;7.25;4.75;;;20.90;59.20;;;;;;5014496;28;20177;-32
2023/05/22 10:37:06;;;;;;;5.05;4.10;;;20.80;76.50;;;;;;5011746;28;20056;-32
2023/05/22 10:39:40;;;;;;;6.38;4.72;;;21.00;59.00;;;;;;5014401;28;20045;-32
2023/05/22 10:42:12;;;;;;;5.45;4.07;;;21.70;75.90;;;;;;5007736;28;20054;-32
2023/05/22 10:44:39;;;;;;;6.15;4.50;;;;;;;;;;5014414;28;20050;-31
2023/05/22 10:47:10;;;;;;;6.28;4.25;;;20.20;74.90;;;;;;5014653;28;20054;-32
2023/05/22 10:49:37;;;;;;;5.20;4.30;;;21.60;63.00;;;;;;5015181;28;20108;-32
2023/05/22 10:52:05;;;;;;;5.30;4.55;;;20.90;75.10;;;;;;5014797;28;20491;-32
2023/05/22 10:54:43;;;;;;;5.82;4.45;;;20.80;64.60;;;;;;5015114;28;20057;-32
2023/05/22 10:57:11;;;;;;;8.20;4.57;;;21.00;75.10;;;;;;5014822;28;20129;-32
2023/05/22 10:59:38;;;;;;;5.68;4.57;;;21.10;76.00;;;;;;5015006;28;20159;-33
2023/05/22 11:02:05;;;;;;;5.88;4.45;;;20.10;74.70;;;;;;5014335;28;20499;-32
2023/05/22 11:04:32;;;;;;;5.95;4.40;;;21.20;75.40;;;;;;5010378;28;20133;-32
2023/05/22 11:07:03;;;;;;;5.32;4.30;;;21.20;58.60;;;;;;4997164;28;20042;-32
2023/05/22 11:09:30;;;;;;;5.22;4.40;;;21.50;76.10;;;;;;4998079;28;20050;-32
2023/05/22 11:12:16;;;;;;;5.72;3.75;;;21.20;58.50;;;;;;5001088;28;20508;-32
2023/05/22 11:14:43;;;;;;;;;;;21.30;58.70;;;;;;5009240;28;20072;-32
2023/05/22 11:17:12;;;;;;;7.25;4.20;;;22.10;75.80;;;;;;5000844;28;19921;-33
2023/05/22 11:19:40;;;;;;;4.97;4.38;;;21.40;76.00;;;;;;4999994;28;20056;-32
2023/05/22 11:22:07;;;;;;;5.07;4.10;;;;;;;;;;4994622;28;20482;-32
2023/05/22 11:24:34;;;;;;;5.70;4.38;;;;;;;;;;4994447;28;20518;-32
2023/05/22 11:27:02;;;;;;;5.32;4.47;;;21.50;75.10;;;;;;4994869;28;20555;-32
2023/05/22 11:29:30;;;;;;;5.38;4.55;;;20.40;73.80;;;;;;4997490;28;20056;-32
2023/05/22 11:31:57;;;;;;;4.80;4.30;;;21.50;74.70;;;;;;5013928;28;20049;-32
2023/05/22 11:34:24;;;;;;;5.15;4.28;;;21.20;75.70;;;;;;5014058;28;20053;-32
2023/05/22 11:36:52;;;;;;;5.93;4.60;;;21.60;68.70;;;;;;5013793;28;20085;-32
2023/05/22 11:39:19;;;;;;;5.63;4.47;;;;;;;;;;5013714;28;20132;-31
2023/05/22 11:41:46;;;;;;;6.00;4.72;;;21.80;76.10;;;;;;5013639;28;20578;-32
2023/05/22 11:44:13;;;;;;;5.00;4.30;;;;;;;;;;5013857;28;20526;-31
2023/05/22 11:46:41;;;;;;;5.68;4.20;;;20.80;75.60;;;;;;5013967;28;20478;-32
2023/05/22 11:49:09;;;;;;;8.05;4.80;;;21.10;75.50;;;;;;5013692;28;20563;-32
2023/05/22 11:51:38;;;;;;;5.28;4.22;;;21.30;58.70;;;;;;5014225;28;20050;-32
2023/05/22 11:54:05;;;;;;;5.07;4.00;;;21.20;74.90;;;;;;5013655;28;20133;-33
2023/05/22 11:56:31;;;;;;;4.88;4.40;;;21.60;69.70;;;;;;5013253;28;20046;-31
2023/05/22 11:58:58;;;;;;;4.75;4.25;;;21.90;76.10;;;;;;5013752;28;20503;-30
2023/05/22 12:01:25;;;;;;;5.18;4.20;;;21.60;75.10;;;;;;5013954;28;20077;-30
2023/05/22 12:03:53;;;;;;;4.75;4.35;;;21.10;74.90;;;;;;5013314;28;20165;-30
2023/05/22 12:06:20;;;;;;;5.68;4.60;;;20.30;74.60;;;;;;5005922;28;20105;-31
2023/05/22 12:08:47;;;;;;;4.78;4.28;;;;;;;;;;4994262;28;20500;-31
2023/05/22 12:11:14;;;;;;;5.88;4.15;;;21.70;69.00;;;;;;5005310;28;20046;-30
2023/05/22 12:13:41;;;;;;;5.88;4.40;;;21.70;75.50;;;;;;5003950;28;20121;-30
2023/05/22 12:16:18;;;;;;;5.25;4.30;;;21.40;59.00;;;;;;5001995;28;20054;-30
2023/05/22 12:18:45;;;;;;;5.35;4.80;;;21.30;76.20;;;;;;5013553;28;20054;-30
2023/05/22 12:21:13;;;;;;;5.50;4.90;;;21.40;59.10;;;;;;5013371;28;20588;-31
2023/05/22 12:23:47;;;;;;;6.38;4.65;;;21.40;59.20;;;;;;5012646;28;20049;-31
2023/05/22 12:26:14;;;;;;;6.20;4.43;;;;;;;;;;5013141;28;20046;-30
2023/05/22 12:28:41;;;;;;;6.85;4.57;;;21.30;76.10;;;;;;5012402;28;20419;-30
2023/05/22 12:31:08;;;;;;;5.90;4.60;;;;;;;;;;5013050;28;20411;-31
2023/05/22 12:33:35;;;;;;;6.82;5.00;;;;;;;;;;5013049;28;20396;-30
2023/05/22 12:36:06;;;;;;;6.63;4.88;;;21.50;59.10;;;;;;5012757;28;20133;-31
2023/05/22 12:38:34;;;;;;;8.57;4.43;;;21.50;75.30;;;;;;5012398;28;20056;-31
2023/05/22 12:41:01;;;;;;;5.80;4.68;;;20.60;74.80;;;;;;5013442;28;20124;-30
2023/05/22 12:43:28;;;;;;;6.30;4.40;;;21.00;75.20;;;;;;5012861;28;20053;-30
2023/05/22 12:45:55;;;;;;;6.13;4.78;;;;;;;;;;5012767;28;20053;-31
2023/05/22 12:48:22;;;;;;;8.00;4.68;;;21.40;75.10;;;;;;5012951;28;20057;-30
2023/05/22 12:50:49;;;;;;;7.18;4.78;;;21.30;67.10;;;;;;5012620;28;20061;-30
2023/05/22 12:53:16;;;;;;;5.63;4.80;;;21.20;75.10;;;;;;5012679;28;20050;-30
2023/05/22 12:55:44;;;;;;;5.70;4.60;;;21.60;58.90;;;;;;5012520;28;20130;-31
2023/05/22 12:58:11;;;;;;;7.82;4.32;;;;;;;;;;5012635;28;20582;-33
2023/05/22 13:00:38;;;;;;;6.90;4.72;;;21.20;75.30;;;;;;5012509;28;20479;-31
2023/05/22 13:03:04;;;;;;;6.30;4.80;;;21.90;75.40;;;;;;5002160;28;20134;-31
2023/05/22 13:05:31;;;;;;;5.85;4.70;;;21.50;64.60;;;;;;4991815;28;20054;-30
2023/05/22 13:07:59;;;;;;;7.55;4.25;;;;;;;;;;5007714;28;20076;-30
2023/05/22 13:10:26;;;;;;;5.13;4.63;;;;;;;;;;4992509;28;20125;-31
2023/05/22 13:12:54;;;;;;;5.38;4.47;;;22.50;75.60;;;;;;4992948;28;20056;-30
2023/05/22 13:15:20;;;;;;;5.68;4.50;;;22.10;76.00;;;;;;4992887;28;20129;-30